sensor_id;sensor_type;location;lat;lon;timestamp;temperature;humidity
16247;DHT22;8231;50.866;7.944;2022-07-25T00:01:06;17.20;99.90
16247;DHT22;8231;50.866;7.944;2022-07-25T00:03:37;17.20;99.90
16247;DHT22;8231;50.866;7.944;2022-07-25T00:06:06;17.20;99.90
16247;DHT22;8231;50.866;7.944;2022-07-25T00:08:43;17.10;99.90
16247;DHT22;8231;50.866;7.944;2022-07-25T00:11:11;17.10;99.90
16247;DHT22;8231;50.866;7.944;2022-07-25T00:13:39;17.10;99.90
16247;DHT22;8231;50.866;7.944;2022-07-25T00:16:07;17.00;99.90
16247;DHT22;8231;50.866;7.944;2022-07-25T00:18:37;17.00;99.90
16247;DHT22;8231;50.866;7.944;2022-07-25T00:21:05;17.00;99.90
16247;DHT22;8231;50.866;7.944;2022-07-25T00:23:33;17.00;99.90
16247;DHT22;8231;50.866;7.944;2022-07-25T00:26:01;17.00;99.90
16247;DHT22;8231;50.866;7.944;2022-07-25T00:28:29;17.00;99.90
16247;DHT22;8231;50.866;7.944;2022-07-25T00:30:57;16.90;99.90
16247;DHT22;8231;50.866;7.944;2022-07-25T00:33:26;16.80;99.90
16247;DHT22;8231;50.866;7.944;2022-07-25T00:35:55;16.90;99.90
16247;DHT22;8231;50.866;7.944;2022-07-25T00:38:23;16.90;99.90
16247;DHT22;8231;50.866;7.944;2022-07-25T00:40:51;16.90;99.90
16247;DHT22;8231;50.866;7.944;2022-07-25T00:43:21;16.90;99.90
16247;DHT22;8231;50.866;7.944;2022-07-25T00:45:49;16.80;99.90
16247;DHT22;8231;50.866;7.944;2022-07-25T00:48:18;16.80;99.90
16247;DHT22;8231;50.866;7.944;2022-07-25T00:50:47;16.70;99.90
16247;DHT22;8231;50.866;7.944;2022-07-25T00:53:16;16.70;99.90
16247;DHT22;8231;50.866;7.944;2022-07-25T00:55:45;16.60;99.90
16247;DHT22;8231;50.866;7.944;2022-07-25T00:58:13;16.60;99.90
16247;DHT22;8231;50.866;7.944;2022-07-25T01:00:42;16.60;99.90
16247;DHT22;8231;50.866;7.944;2022-07-25T01:03:10;16.60;99.90
16247;DHT22;8231;50.866;7.944;2022-07-25T01:05:38;16.60;99.90
16247;DHT22;8231;50.866;7.944;2022-07-25T01:08:07;16.60;99.90
16247;DHT22;8231;50.866;7.944;2022-07-25T01:10:37;16.50;99.90
16247;DHT22;8231;50.866;7.944;2022-07-25T01:13:05;16.50;99.90
16247;DHT22;8231;50.866;7.944;2022-07-25T01:15:33;16.50;99.90
16247;DHT22;8231;50.866;7.944;2022-07-25T01:18:05;16.50;99.90
16247;DHT22;8231;50.866;7.944;2022-07-25T01:20:34;16.40;99.90
16247;DHT22;8231;50.866;7.944;2022-07-25T01:23:03;16.40;99.90
16247;DHT22;8231;50.866;7.944;2022-07-25T01:25:31;16.40;99.90
16247;DHT22;8231;50.866;7.944;2022-07-25T01:27:59;16.30;99.90
16247;DHT22;8231;50.866;7.944;2022-07-25T01:30:27;16.30;99.90
16247;DHT22;8231;50.866;7.944;2022-07-25T01:32:55;16.30;99.90
16247;DHT22;8231;50.866;7.944;2022-07-25T01:35:24;16.20;99.90
16247;DHT22;8231;50.866;7.944;2022-07-25T01:37:53;16.30;99.90
16247;DHT22;8231;50.866;7.944;2022-07-25T01:40:21;16.20;99.90
16247;DHT22;8231;50.866;7.944;2022-07-25T01:42:49;16.20;99.90
16247;DHT22;8231;50.866;7.944;2022-07-25T01:45:17;16.10;99.90
16247;DHT22;8231;50.866;7.944;2022-07-25T01:47:45;16.10;99.90
16247;DHT22;8231;50.866;7.944;2022-07-25T01:50:13;16.10;99.90
16247;DHT22;8231;50.866;7.944;2022-07-25T01:52:42;16.10;99.90
16247;DHT22;8231;50.866;7.944;2022-07-25T01:55:12;16.00;99.90
16247;DHT22;8231;50.866;7.944;2022-07-25T01:57:40;16.00;99.90
16247;DHT22;8231;50.866;7.944;2022-07-25T02:00:16;16.00;99.90
16247;DHT22;8231;50.866;7.944;2022-07-25T02:02:44;15.90;99.90
16247;DHT22;8231;50.866;7.944;2022-07-25T02:05:14;15.90;99.90
16247;DHT22;8231;50.866;7.944;2022-07-25T02:07:42;15.90;99.90
16247;DHT22;8231;50.866;7.944;2022-07-25T02:10:12;15.90;99.90
16247;DHT22;8231;50.866;7.944;2022-07-25T02:12:40;15.80;99.90
16247;DHT22;8231;50.866;7.944;2022-07-25T02:15:08;15.90;99.90
16247;DHT22;8231;50.866;7.944;2022-07-25T02:17:37;15.90;99.90
16247;DHT22;8231;50.866;7.944;2022-07-25T02:20:05;15.80;99.90
16247;DHT22;8231;50.866;7.944;2022-07-25T02:22:34;15.90;99.90
16247;DHT22;8231;50.866;7.944;2022-07-25T02:25:02;15.90;99.90
16247;DHT22;8231;50.866;7.944;2022-07-25T02:27:32;15.80;99.90
16247;DHT22;8231;50.866;7.944;2022-07-25T02:30:00;15.90;99.90
16247;DHT22;8231;50.866;7.944;2022-07-25T02:32:29;15.80;99.90
16247;DHT22;8231;50.866;7.944;2022-07-25T02:34:57;15.80;99.90
16247;DHT22;8231;50.866;7.944;2022-07-25T02:37:25;15.70;99.90
16247;DHT22;8231;50.866;7.944;2022-07-25T02:39:53;15.70;99.90
16247;DHT22;8231;50.866;7.944;2022-07-25T02:42:21;15.70;99.90
16247;DHT22;8231;50.866;7.944;2022-07-25T02:44:51;15.60;99.90
16247;DHT22;8231;50.866;7.944;2022-07-25T02:47:19;15.60;99.90
16247;DHT22;8231;50.866;7.944;2022-07-25T02:49:47;15.70;99.90
16247;DHT22;8231;50.866;7.944;2022-07-25T02:52:15;15.50;99.90
16247;DHT22;8231;50.866;7.944;2022-07-25T02:54:44;15.50;99.90
16247;DHT22;8231;50.866;7.944;2022-07-25T02:57:12;15.50;99.90
16247;DHT22;8231;50.866;7.944;2022-07-25T02:59:40;15.40;99.90
16247;DHT22;8231;50.866;7.944;2022-07-25T03:02:10;15.40;99.90
16247;DHT22;8231;50.866;7.944;2022-07-25T03:04:38;15.50;99.90
16247;DHT22;8231;50.866;7.944;2022-07-25T03:07:06;15.40;99.90
16247;DHT22;8231;50.866;7.944;2022-07-25T03:09:34;15.40;99.90
16247;DHT22;8231;50.866;7.944;2022-07-25T03:12:02;15.40;99.90
16247;DHT22;8231;50.866;7.944;2022-07-25T03:14:30;15.40;99.90
16247;DHT22;8231;50.866;7.944;2022-07-25T03:16:58;15.30;99.90
16247;DHT22;8231;50.866;7.944;2022-07-25T03:19:29;15.40;99.90
16247;DHT22;8231;50.866;7.944;2022-07-25T03:21:57;15.30;99.90
16247;DHT22;8231;50.866;7.944;2022-07-25T03:24:25;15.40;99.90
16247;DHT22;8231;50.866;7.944;2022-07-25T03:26:53;15.30;99.90
16247;DHT22;8231;50.866;7.944;2022-07-25T03:29:21;15.30;99.90
16247;DHT22;8231;50.866;7.944;2022-07-25T03:31:49;15.30;99.90
16247;DHT22;8231;50.866;7.944;2022-07-25T03:34:17;15.40;99.90
16247;DHT22;8231;50.866;7.944;2022-07-25T03:36:47;15.30;99.90
16247;DHT22;8231;50.866;7.944;2022-07-25T03:39:15;15.20;99.90
16247;DHT22;8231;50.866;7.944;2022-07-25T03:41:44;15.20;99.90
16247;DHT22;8231;50.866;7.944;2022-07-25T03:44:12;15.20;99.90
16247;DHT22;8231;50.866;7.944;2022-07-25T03:46:40;15.20;99.90
16247;DHT22;8231;50.866;7.944;2022-07-25T03:49:08;15.20;99.90
16247;DHT22;8231;50.866;7.944;2022-07-25T03:51:36;15.20;99.90
16247;DHT22;8231;50.866;7.944;2022-07-25T03:54:06;15.20;99.90
16247;DHT22;8231;50.866;7.944;2022-07-25T03:56:40;15.20;99.90
16247;DHT22;8231;50.866;7.944;2022-07-25T03:59:11;15.10;99.90
16247;DHT22;8231;50.866;7.944;2022-07-25T04:01:41;15.20;99.90
16247;DHT22;8231;50.866;7.944;2022-07-25T04:04:10;15.10;99.90
16247;DHT22;8231;50.866;7.944;2022-07-25T04:06:39;15.20;99.90
16247;DHT22;8231;50.866;7.944;2022-07-25T04:09:09;15.20;99.90
16247;DHT22;8231;50.866;7.944;2022-07-25T04:11:37;15.20;99.90
16247;DHT22;8231;50.866;7.944;2022-07-25T04:14:05;15.20;99.90
16247;DHT22;8231;50.866;7.944;2022-07-25T04:16:34;15.20;99.90
16247;DHT22;8231;50.866;7.944;2022-07-25T04:19:05;15.20;99.90
16247;DHT22;8231;50.866;7.944;2022-07-25T04:21:34;15.30;99.90
16247;DHT22;8231;50.866;7.944;2022-07-25T04:24:02;15.20;99.90
16247;DHT22;8231;50.866;7.944;2022-07-25T04:26:32;15.30;99.90
16247;DHT22;8231;50.866;7.944;2022-07-25T04:29:00;15.30;99.90
16247;DHT22;8231;50.866;7.944;2022-07-25T04:31:29;15.40;99.90
16247;DHT22;8231;50.866;7.944;2022-07-25T04:33:58;15.40;99.90
16247;DHT22;8231;50.866;7.944;2022-07-25T04:36:26;15.40;99.90
16247;DHT22;8231;50.866;7.944;2022-07-25T04:38:55;15.50;99.90
16247;DHT22;8231;50.866;7.944;2022-07-25T04:41:23;15.50;99.90
16247;DHT22;8231;50.866;7.944;2022-07-25T04:43:52;15.60;99.90
16247;DHT22;8231;50.866;7.944;2022-07-25T04:46:21;15.60;99.90
16247;DHT22;8231;50.866;7.944;2022-07-25T04:48:50;15.70;99.90
16247;DHT22;8231;50.866;7.944;2022-07-25T04:51:18;15.90;99.90
16247;DHT22;8231;50.866;7.944;2022-07-25T04:53:46;16.20;99.90
16247;DHT22;8231;50.866;7.944;2022-07-25T04:56:14;16.60;99.90
16247;DHT22;8231;50.866;7.944;2022-07-25T04:58:42;17.00;99.90
16247;DHT22;8231;50.866;7.944;2022-07-25T05:01:12;17.20;99.90
16247;DHT22;8231;50.866;7.944;2022-07-25T05:03:40;17.60;99.90
16247;DHT22;8231;50.866;7.944;2022-07-25T05:06:16;17.90;99.90
16247;DHT22;8231;50.866;7.944;2022-07-25T05:08:45;18.20;99.90
16247;DHT22;8231;50.866;7.944;2022-07-25T05:11:13;18.50;99.90
16247;DHT22;8231;50.866;7.944;2022-07-25T05:13:41;18.90;99.90
16247;DHT22;8231;50.866;7.944;2022-07-25T05:16:09;19.40;99.90
16247;DHT22;8231;50.866;7.944;2022-07-25T05:18:39;19.90;99.90
16247;DHT22;8231;50.866;7.944;2022-07-25T05:21:09;20.30;99.90
16247;DHT22;8231;50.866;7.944;2022-07-25T05:23:38;20.70;99.90
16247;DHT22;8231;50.866;7.944;2022-07-25T05:26:06;20.90;99.90
16247;DHT22;8231;50.866;7.944;2022-07-25T05:28:34;21.40;99.90
16247;DHT22;8231;50.866;7.944;2022-07-25T05:31:03;21.70;99.90
16247;DHT22;8231;50.866;7.944;2022-07-25T05:33:32;22.00;99.90
16247;DHT22;8231;50.866;7.944;2022-07-25T05:36:02;22.40;99.90
16247;DHT22;8231;50.866;7.944;2022-07-25T05:38:31;22.90;99.90
16247;DHT22;8231;50.866;7.944;2022-07-25T05:40:59;23.30;99.90
16247;DHT22;8231;50.866;7.944;2022-07-25T05:43:27;23.80;99.90
16247;DHT22;8231;50.866;7.944;2022-07-25T05:45:59;24.20;99.90
16247;DHT22;8231;50.866;7.944;2022-07-25T05:48:27;24.60;99.90
16247;DHT22;8231;50.866;7.944;2022-07-25T05:50:56;25.00;99.90
16247;DHT22;8231;50.866;7.944;2022-07-25T05:53:26;25.40;99.90
16247;DHT22;8231;50.866;7.944;2022-07-25T05:55:54;25.80;99.90
16247;DHT22;8231;50.866;7.944;2022-07-25T05:58:22;26.10;99.90
16247;DHT22;8231;50.866;7.944;2022-07-25T06:00:56;26.50;99.90
16247;DHT22;8231;50.866;7.944;2022-07-25T06:03:24;26.80;99.90
16247;DHT22;8231;50.866;7.944;2022-07-25T06:05:53;27.30;99.90
16247;DHT22;8231;50.866;7.944;2022-07-25T06:08:21;27.90;99.90
16247;DHT22;8231;50.866;7.944;2022-07-25T06:10:52;28.10;99.90
16247;DHT22;8231;50.866;7.944;2022-07-25T06:13:20;28.30;99.70
16247;DHT22;8231;50.866;7.944;2022-07-25T06:15:49;28.60;99.90
16247;DHT22;8231;50.866;7.944;2022-07-25T06:18:17;29.20;98.60
16247;DHT22;8231;50.866;7.944;2022-07-25T06:20:46;29.70;96.50
16247;DHT22;8231;50.866;7.944;2022-07-25T06:23:14;30.10;95.40
16247;DHT22;8231;50.866;7.944;2022-07-25T06:25:43;30.20;94.10
16247;DHT22;8231;50.866;7.944;2022-07-25T06:28:17;30.50;93.40
16247;DHT22;8231;50.866;7.944;2022-07-25T06:30:46;30.70;92.70
16247;DHT22;8231;50.866;7.944;2022-07-25T06:33:14;31.20;92.40
16247;DHT22;8231;50.866;7.944;2022-07-25T06:35:42;31.50;91.20
16247;DHT22;8231;50.866;7.944;2022-07-25T06:38:10;32.00;90.40
16247;DHT22;8231;50.866;7.944;2022-07-25T06:40:38;32.40;87.90
16247;DHT22;8231;50.866;7.944;2022-07-25T06:43:06;32.50;86.80
16247;DHT22;8231;50.866;7.944;2022-07-25T06:45:35;32.90;87.00
16247;DHT22;8231;50.866;7.944;2022-07-25T06:48:04;33.30;83.80
16247;DHT22;8231;50.866;7.944;2022-07-25T06:50:32;33.50;82.40
16247;DHT22;8231;50.866;7.944;2022-07-25T06:53:00;33.70;80.90
16247;DHT22;8231;50.866;7.944;2022-07-25T06:55:28;33.80;82.80
16247;DHT22;8231;50.866;7.944;2022-07-25T06:57:56;34.40;77.60
16247;DHT22;8231;50.866;7.944;2022-07-25T07:00:25;34.10;75.90
16247;DHT22;8231;50.866;7.944;2022-07-25T07:02:56;34.40;72.70
16247;DHT22;8231;50.866;7.944;2022-07-25T07:05:26;35.10;71.60
16247;DHT22;8231;50.866;7.944;2022-07-25T07:07:55;35.50;70.90
16247;DHT22;8231;50.866;7.944;2022-07-25T07:10:24;36.30;69.00
16247;DHT22;8231;50.866;7.944;2022-07-25T07:13:02;36.40;66.90
16247;DHT22;8231;50.866;7.944;2022-07-25T07:15:33;36.70;65.60
16247;DHT22;8231;50.866;7.944;2022-07-25T07:18:04;37.30;62.10
16247;DHT22;8231;50.866;7.944;2022-07-25T07:20:32;37.70;58.50
16247;DHT22;8231;50.866;7.944;2022-07-25T07:23:01;37.60;55.90
16247;DHT22;8231;50.866;7.944;2022-07-25T07:25:29;37.60;57.40
16247;DHT22;8231;50.866;7.944;2022-07-25T07:27:58;37.80;55.70
16247;DHT22;8231;50.866;7.944;2022-07-25T07:30:26;38.30;54.10
16247;DHT22;8231;50.866;7.944;2022-07-25T07:33:15;38.30;53.50
16247;DHT22;8231;50.866;7.944;2022-07-25T07:35:43;38.40;52.70
16247;DHT22;8231;50.866;7.944;2022-07-25T07:38:11;38.50;51.10
16247;DHT22;8231;50.866;7.944;2022-07-25T07:40:40;38.70;50.30
16247;DHT22;8231;50.866;7.944;2022-07-25T07:43:08;38.90;51.90
16247;DHT22;8231;50.866;7.944;2022-07-25T07:45:36;38.60;51.40
16247;DHT22;8231;50.866;7.944;2022-07-25T07:48:05;38.60;50.20
16247;DHT22;8231;50.866;7.944;2022-07-25T07:50:34;39.20;48.00
16247;DHT22;8231;50.866;7.944;2022-07-25T07:53:03;39.90;48.90
16247;DHT22;8231;50.866;7.944;2022-07-25T07:55:32;40.10;44.50
16247;DHT22;8231;50.866;7.944;2022-07-25T07:58:14;40.40;45.20
16247;DHT22;8231;50.866;7.944;2022-07-25T08:00:43;40.60;44.00
16247;DHT22;8231;50.866;7.944;2022-07-25T08:03:11;40.40;45.80
16247;DHT22;8231;50.866;7.944;2022-07-25T08:05:42;40.20;45.70
16247;DHT22;8231;50.866;7.944;2022-07-25T08:08:12;40.40;43.60
16247;DHT22;8231;50.866;7.944;2022-07-25T08:10:43;40.30;43.70
16247;DHT22;8231;50.866;7.944;2022-07-25T08:13:12;40.30;43.90
16247;DHT22;8231;50.866;7.944;2022-07-25T08:15:41;40.00;43.60
16247;DHT22;8231;50.866;7.944;2022-07-25T08:18:10;39.30;42.40
16247;DHT22;8231;50.866;7.944;2022-07-25T08:20:46;38.70;45.30
16247;DHT22;8231;50.866;7.944;2022-07-25T08:23:14;39.10;45.20
16247;DHT22;8231;50.866;7.944;2022-07-25T08:25:43;38.70;46.30
16247;DHT22;8231;50.866;7.944;2022-07-25T08:28:12;38.40;45.90
16247;DHT22;8231;50.866;7.944;2022-07-25T08:30:41;37.80;45.10
16247;DHT22;8231;50.866;7.944;2022-07-25T08:33:11;37.40;45.50
16247;DHT22;8231;50.866;7.944;2022-07-25T08:35:40;37.00;46.00
16247;DHT22;8231;50.866;7.944;2022-07-25T08:38:14;36.90;47.30
16247;DHT22;8231;50.866;7.944;2022-07-25T08:40:42;37.10;47.60
16247;DHT22;8231;50.866;7.944;2022-07-25T08:43:11;37.20;46.00
16247;DHT22;8231;50.866;7.944;2022-07-25T08:45:43;36.90;47.10
16247;DHT22;8231;50.866;7.944;2022-07-25T08:48:12;36.50;47.10
16247;DHT22;8231;50.866;7.944;2022-07-25T08:50:41;36.10;48.60
16247;DHT22;8231;50.866;7.944;2022-07-25T08:53:09;35.40;48.60
16247;DHT22;8231;50.866;7.944;2022-07-25T08:55:58;35.60;51.10
16247;DHT22;8231;50.866;7.944;2022-07-25T08:58:30;36.00;49.80
16247;DHT22;8231;50.866;7.944;2022-07-25T09:00:58;36.70;50.60
16247;DHT22;8231;50.866;7.944;2022-07-25T09:03:36;37.10;46.90
16247;DHT22;8231;50.866;7.944;2022-07-25T09:06:16;37.70;45.80
16247;DHT22;8231;50.866;7.944;2022-07-25T09:08:52;38.10;47.50
16247;DHT22;8231;50.866;7.944;2022-07-25T09:11:29;38.40;45.70
16247;DHT22;8231;50.866;7.944;2022-07-25T09:14:02;38.50;44.00
16247;DHT22;8231;50.866;7.944;2022-07-25T09:16:34;38.50;43.70
16247;DHT22;8231;50.866;7.944;2022-07-25T09:19:07;38.70;43.70
16247;DHT22;8231;50.866;7.944;2022-07-25T09:21:36;38.90;44.10
16247;DHT22;8231;50.866;7.944;2022-07-25T09:24:10;38.80;45.20
16247;DHT22;8231;50.866;7.944;2022-07-25T09:26:45;38.60;44.10
16247;DHT22;8231;50.866;7.944;2022-07-25T09:29:18;38.50;44.70
16247;DHT22;8231;50.866;7.944;2022-07-25T09:31:47;38.00;46.20
16247;DHT22;8231;50.866;7.944;2022-07-25T09:34:16;37.80;44.90
16247;DHT22;8231;50.866;7.944;2022-07-25T09:36:52;37.70;46.60
16247;DHT22;8231;50.866;7.944;2022-07-25T09:39:20;37.50;45.00
16247;DHT22;8231;50.866;7.944;2022-07-25T09:41:49;37.60;46.60
16247;DHT22;8231;50.866;7.944;2022-07-25T09:44:19;37.80;47.10
16247;DHT22;8231;50.866;7.944;2022-07-25T09:46:49;37.80;45.30
16247;DHT22;8231;50.866;7.944;2022-07-25T09:49:17;37.50;46.60
16247;DHT22;8231;50.866;7.944;2022-07-25T09:51:45;37.00;45.70
16247;DHT22;8231;50.866;7.944;2022-07-25T09:54:14;36.60;46.40
16247;DHT22;8231;50.866;7.944;2022-07-25T09:56:43;36.40;48.50
16247;DHT22;8231;50.866;7.944;2022-07-25T09:59:12;36.30;48.40
16247;DHT22;8231;50.866;7.944;2022-07-25T10:01:48;36.10;46.40
16247;DHT22;8231;50.866;7.944;2022-07-25T10:04:21;35.80;47.70
16247;DHT22;8231;50.866;7.944;2022-07-25T10:06:59;35.50;46.80
16247;DHT22;8231;50.866;7.944;2022-07-25T10:09:30;35.30;48.30
16247;DHT22;8231;50.866;7.944;2022-07-25T10:12:03;35.50;50.20
16247;DHT22;8231;50.866;7.944;2022-07-25T10:14:34;36.00;46.40
16247;DHT22;8231;50.866;7.944;2022-07-25T10:17:02;36.00;48.00
16247;DHT22;8231;50.866;7.944;2022-07-25T10:19:38;36.10;48.90
16247;DHT22;8231;50.866;7.944;2022-07-25T10:22:15;36.10;48.60
16247;DHT22;8231;50.866;7.944;2022-07-25T10:25:08;36.00;49.20
16247;DHT22;8231;50.866;7.944;2022-07-25T10:27:42;36.30;47.10
16247;DHT22;8231;50.866;7.944;2022-07-25T10:30:20;36.50;47.10
16247;DHT22;8231;50.866;7.944;2022-07-25T10:32:50;36.70;49.10
16247;DHT22;8231;50.866;7.944;2022-07-25T10:35:18;36.30;46.60
16247;DHT22;8231;50.866;7.944;2022-07-25T10:37:49;36.10;48.40
16247;DHT22;8231;50.866;7.944;2022-07-25T10:40:26;36.20;48.40
16247;DHT22;8231;50.866;7.944;2022-07-25T10:43:01;36.10;48.00
16247;DHT22;8231;50.866;7.944;2022-07-25T10:45:36;36.10;49.10
16247;DHT22;8231;50.866;7.944;2022-07-25T10:48:07;36.30;49.20
16247;DHT22;8231;50.866;7.944;2022-07-25T10:50:49;36.40;47.40
16247;DHT22;8231;50.866;7.944;2022-07-25T10:53:34;36.20;46.50
16247;DHT22;8231;50.866;7.944;2022-07-25T10:56:09;36.20;48.20
16247;DHT22;8231;50.866;7.944;2022-07-25T10:58:45;35.90;48.00
16247;DHT22;8231;50.866;7.944;2022-07-25T11:01:19;35.70;47.70
16247;DHT22;8231;50.866;7.944;2022-07-25T11:03:48;35.60;48.60
16247;DHT22;8231;50.866;7.944;2022-07-25T11:06:27;35.70;48.80
16247;DHT22;8231;50.866;7.944;2022-07-25T11:08:56;35.50;49.10
16247;DHT22;8231;50.866;7.944;2022-07-25T11:11:37;35.60;51.00
16247;DHT22;8231;50.866;7.944;2022-07-25T11:14:14;35.70;50.00
16247;DHT22;8231;50.866;7.944;2022-07-25T11:16:45;35.30;50.20
16247;DHT22;8231;50.866;7.944;2022-07-25T11:19:18;34.80;49.10
16247;DHT22;8231;50.866;7.944;2022-07-25T11:21:48;34.40;50.60
16247;DHT22;8231;50.866;7.944;2022-07-25T11:24:17;34.00;50.40
16247;DHT22;8231;50.866;7.944;2022-07-25T11:26:47;33.80;52.30
16247;DHT22;8231;50.866;7.944;2022-07-25T11:29:20;33.50;52.40
16247;DHT22;8231;50.866;7.944;2022-07-25T11:31:59;33.10;56.10
16247;DHT22;8231;50.866;7.944;2022-07-25T11:34:29;32.70;57.00
16247;DHT22;8231;50.866;7.944;2022-07-25T11:37:01;32.50;57.00
16247;DHT22;8231;50.866;7.944;2022-07-25T11:39:31;32.40;63.70
16247;DHT22;8231;50.866;7.944;2022-07-25T11:42:01;32.20;61.30
16247;DHT22;8231;50.866;7.944;2022-07-25T11:44:34;32.10;66.30
16247;DHT22;8231;50.866;7.944;2022-07-25T11:47:06;31.90;66.00
16247;DHT22;8231;50.866;7.944;2022-07-25T11:49:44;31.80;68.30
16247;DHT22;8231;50.866;7.944;2022-07-25T11:52:20;31.70;71.70
16247;DHT22;8231;50.866;7.944;2022-07-25T11:54:50;31.60;74.80
16247;DHT22;8231;50.866;7.944;2022-07-25T11:57:20;31.70;74.10
16247;DHT22;8231;50.866;7.944;2022-07-25T11:59:48;31.90;76.60
16247;DHT22;8231;50.866;7.944;2022-07-25T12:02:26;32.00;73.30
16247;DHT22;8231;50.866;7.944;2022-07-25T12:04:56;32.10;72.00
16247;DHT22;8231;50.866;7.944;2022-07-25T12:07:48;32.20;70.70
16247;DHT22;8231;50.866;7.944;2022-07-25T12:10:22;32.20;70.50
16247;DHT22;8231;50.866;7.944;2022-07-25T12:12:52;32.00;66.20
16247;DHT22;8231;50.866;7.944;2022-07-25T12:15:22;31.30;65.80
16247;DHT22;8231;50.866;7.944;2022-07-25T12:17:54;31.30;69.90
16247;DHT22;8231;50.866;7.944;2022-07-25T12:20:24;31.20;68.60
16247;DHT22;8231;50.866;7.944;2022-07-25T12:22:54;31.40;70.40
16247;DHT22;8231;50.866;7.944;2022-07-25T12:25:23;31.70;68.60
16247;DHT22;8231;50.866;7.944;2022-07-25T12:27:57;32.10;69.50
16247;DHT22;8231;50.866;7.944;2022-07-25T12:30:26;32.80;66.60
16247;DHT22;8231;50.866;7.944;2022-07-25T12:32:57;33.50;65.50
16247;DHT22;8231;50.866;7.944;2022-07-25T12:35:25;34.00;60.80
16247;DHT22;8231;50.866;7.944;2022-07-25T12:37:54;33.90;60.30
16247;DHT22;8231;50.866;7.944;2022-07-25T12:40:46;33.40;61.60
16247;DHT22;8231;50.866;7.944;2022-07-25T12:43:15;32.90;61.70
16247;DHT22;8231;50.866;7.944;2022-07-25T12:45:43;32.80;63.90
16247;DHT22;8231;50.866;7.944;2022-07-25T12:48:13;32.70;65.00
16247;DHT22;8231;50.866;7.944;2022-07-25T12:50:42;33.00;65.30
16247;DHT22;8231;50.866;7.944;2022-07-25T12:53:10;33.20;64.10
16247;DHT22;8231;50.866;7.944;2022-07-25T12:55:40;33.40;64.50
16247;DHT22;8231;50.866;7.944;2022-07-25T12:58:08;33.70;63.90
16247;DHT22;8231;50.866;7.944;2022-07-25T13:00:37;33.50;60.40
16247;DHT22;8231;50.866;7.944;2022-07-25T13:03:05;33.50;60.40
16247;DHT22;8231;50.866;7.944;2022-07-25T13:05:34;33.70;59.90
16247;DHT22;8231;50.866;7.944;2022-07-25T13:08:03;33.20;61.20
16247;DHT22;8231;50.866;7.944;2022-07-25T13:10:31;33.00;62.40
16247;DHT22;8231;50.866;7.944;2022-07-25T13:12:59;33.20;61.00
16247;DHT22;8231;50.866;7.944;2022-07-25T13:15:28;33.10;60.90
16247;DHT22;8231;50.866;7.944;2022-07-25T13:17:56;33.00;59.90
16247;DHT22;8231;50.866;7.944;2022-07-25T13:20:24;33.00;62.30
16247;DHT22;8231;50.866;7.944;2022-07-25T13:22:54;33.10;60.00
16247;DHT22;8231;50.866;7.944;2022-07-25T13:25:22;33.00;59.80
16247;DHT22;8231;50.866;7.944;2022-07-25T13:27:50;33.00;59.90
16247;DHT22;8231;50.866;7.944;2022-07-25T13:30:18;33.20;64.70
16247;DHT22;8231;50.866;7.944;2022-07-25T13:32:47;33.50;61.00
16247;DHT22;8231;50.866;7.944;2022-07-25T13:35:16;33.50;60.20
16247;DHT22;8231;50.866;7.944;2022-07-25T13:37:47;33.60;60.40
16247;DHT22;8231;50.866;7.944;2022-07-25T13:40:16;33.70;60.00
16247;DHT22;8231;50.866;7.944;2022-07-25T13:42:44;33.70;59.50
16247;DHT22;8231;50.866;7.944;2022-07-25T13:45:12;33.80;61.70
16247;DHT22;8231;50.866;7.944;2022-07-25T13:47:41;33.70;59.70
16247;DHT22;8231;50.866;7.944;2022-07-25T13:50:09;33.70;61.50
16247;DHT22;8231;50.866;7.944;2022-07-25T13:52:37;33.50;61.30
16247;DHT22;8231;50.866;7.944;2022-07-25T13:55:06;33.40;61.20
16247;DHT22;8231;50.866;7.944;2022-07-25T13:57:37;33.50;62.40
16247;DHT22;8231;50.866;7.944;2022-07-25T14:00:06;33.70;62.80
16247;DHT22;8231;50.866;7.944;2022-07-25T14:02:35;33.40;63.10
16247;DHT22;8231;50.866;7.944;2022-07-25T14:05:03;33.20;62.80
16247;DHT22;8231;50.866;7.944;2022-07-25T14:07:33;33.00;62.40
16247;DHT22;8231;50.866;7.944;2022-07-25T14:10:01;33.20;63.60
16247;DHT22;8231;50.866;7.944;2022-07-25T14:12:29;33.30;65.30
16247;DHT22;8231;50.866;7.944;2022-07-25T14:14:59;33.50;64.60
16247;DHT22;8231;50.866;7.944;2022-07-25T14:17:27;33.40;64.00
16247;DHT22;8231;50.866;7.944;2022-07-25T14:19:56;33.20;64.80
16247;DHT22;8231;50.866;7.944;2022-07-25T14:22:24;33.10;64.90
16247;DHT22;8231;50.866;7.944;2022-07-25T14:24:52;33.10;64.80
16247;DHT22;8231;50.866;7.944;2022-07-25T14:27:21;33.10;65.50
16247;DHT22;8231;50.866;7.944;2022-07-25T14:29:49;32.90;64.10
16247;DHT22;8231;50.866;7.944;2022-07-25T14:32:18;32.20;65.10
16247;DHT22;8231;50.866;7.944;2022-07-25T14:34:46;31.90;67.00
16247;DHT22;8231;50.866;7.944;2022-07-25T14:37:14;32.10;66.90
16247;DHT22;8231;50.866;7.944;2022-07-25T14:39:43;32.00;65.90
16247;DHT22;8231;50.866;7.944;2022-07-25T14:42:11;32.00;65.80
16247;DHT22;8231;50.866;7.944;2022-07-25T14:44:41;31.90;63.90
16247;DHT22;8231;50.866;7.944;2022-07-25T14:47:09;31.50;64.80
16247;DHT22;8231;50.866;7.944;2022-07-25T14:49:40;31.20;64.40
16247;DHT22;8231;50.866;7.944;2022-07-25T14:52:10;31.10;64.50
16247;DHT22;8231;50.866;7.944;2022-07-25T14:54:39;31.20;66.20
16247;DHT22;8231;50.866;7.944;2022-07-25T14:57:07;31.30;63.30
16247;DHT22;8231;50.866;7.944;2022-07-25T14:59:36;31.00;64.10
16247;DHT22;8231;50.866;7.944;2022-07-25T15:02:04;31.20;64.30
16247;DHT22;8231;50.866;7.944;2022-07-25T15:04:32;31.10;64.90
16247;DHT22;8231;50.866;7.944;2022-07-25T15:07:02;31.20;64.80
16247;DHT22;8231;50.866;7.944;2022-07-25T15:09:30;30.70;64.30
16247;DHT22;8231;50.866;7.944;2022-07-25T15:11:58;30.70;65.50
16247;DHT22;8231;50.866;7.944;2022-07-25T15:14:26;30.70;65.30
16247;DHT22;8231;50.866;7.944;2022-07-25T15:16:55;30.30;66.30
16247;DHT22;8231;50.866;7.944;2022-07-25T15:19:23;30.20;67.10
16247;DHT22;8231;50.866;7.944;2022-07-25T15:21:52;30.20;68.10
16247;DHT22;8231;50.866;7.944;2022-07-25T15:24:22;30.20;67.80
16247;DHT22;8231;50.866;7.944;2022-07-25T15:26:55;30.20;67.30
16247;DHT22;8231;50.866;7.944;2022-07-25T15:29:23;30.30;67.60
16247;DHT22;8231;50.866;7.944;2022-07-25T15:31:53;30.40;67.70
16247;DHT22;8231;50.866;7.944;2022-07-25T15:34:21;30.20;67.70
16247;DHT22;8231;50.866;7.944;2022-07-25T15:36:50;30.20;68.10
16247;DHT22;8231;50.866;7.944;2022-07-25T15:39:18;30.10;67.70
16247;DHT22;8231;50.866;7.944;2022-07-25T15:41:47;30.00;68.40
16247;DHT22;8231;50.866;7.944;2022-07-25T15:44:15;30.00;69.20
16247;DHT22;8231;50.866;7.944;2022-07-25T15:46:44;30.00;68.40
16247;DHT22;8231;50.866;7.944;2022-07-25T15:49:14;29.80;69.00
16247;DHT22;8231;50.866;7.944;2022-07-25T15:51:42;29.80;68.90
16247;DHT22;8231;50.866;7.944;2022-07-25T15:54:10;29.80;68.70
16247;DHT22;8231;50.866;7.944;2022-07-25T15:56:38;29.60;69.10
16247;DHT22;8231;50.866;7.944;2022-07-25T15:59:08;29.60;69.10
16247;DHT22;8231;50.866;7.944;2022-07-25T16:01:36;29.40;69.10